Time;durP1;ratioP1;P1;durP2;ratioP2;P2;SDS_P1;SDS_P2;PMS_P1;PMS_P2;Temp;Humidity;BMP_temperature;BMP_pressure;BME280_temperature;BME280_humidity;BME280_pressure;Samples;Min_cycle;Max_cycle;Signal;HPM_P1;HPM_P2
2022/03/26 00:01:37;;;;;;;57.95;31.13;;;7.30;99.90;;;;;;4952627;28;20050;-82
2022/03/26 00:04:02;;;;;;;58.03;31.70;;;7.30;99.90;;;;;;4955219;28;20030;-82
2022/03/26 00:06:28;;;;;;;64.03;33.75;;;7.10;99.90;;;;;;4967200;28;20049;-82
2022/03/26 00:08:54;;;;;;;60.75;31.52;;;6.80;99.90;;;;;;4953645;28;20054;-82
2022/03/26 00:11:20;;;;;;;64.05;33.03;;;6.90;99.90;;;;;;4953735;28;20035;-81
2022/03/26 00:13:45;;;;;;;59.10;31.25;;;6.90;99.90;;;;;;4964871;28;20134;-82
2022/03/26 00:16:11;;;;;;;55.30;31.75;;;7.10;99.90;;;;;;4950105;28;20062;-81
2022/03/26 00:18:38;;;;;;;63.45;32.85;;;6.90;99.90;;;;;;4954223;28;20034;-81
2022/03/26 00:21:04;;;;;;;53.10;32.00;;;6.80;99.90;;;;;;4953814;28;20030;-81
2022/03/26 00:23:29;;;;;;;57.78;32.15;;;6.50;99.90;;;;;;4959079;28;20090;-82
2022/03/26 00:25:58;;;;;;;62.53;32.60;;;6.70;99.90;;;;;;4959241;28;20050;-82
2022/03/26 00:28:24;;;;;;;64.68;31.80;;;6.80;99.90;;;;;;4948885;28;20031;-82
2022/03/26 00:30:49;;;;;;;61.80;33.33;;;6.70;99.90;;;;;;4962582;28;20031;-82
2022/03/26 00:33:15;;;;;;;57.67;30.85;;;6.50;99.90;;;;;;4963216;28;20030;-82
2022/03/26 00:35:40;;;;;;;73.38;33.60;;;6.40;99.90;;;;;;4942367;28;20497;-81
2022/03/26 00:38:06;;;;;;;55.35;27.42;;;6.20;99.90;;;;;;4944025;28;20026;-82
2022/03/26 00:40:32;;;;;;;50.80;27.13;;;6.40;99.90;;;;;;4957157;28;20026;-81
2022/03/26 00:42:59;;;;;;;62.08;32.47;;;6.70;99.90;;;;;;4936159;28;20054;-81
2022/03/26 00:45:26;;;;;;;60.20;32.55;;;6.70;99.90;;;;;;4937945;28;20026;-82
2022/03/26 00:47:52;;;;;;;59.05;28.42;;;6.60;99.90;;;;;;4934851;28;20034;-80
2022/03/26 00:50:17;;;;;;;53.10;29.02;;;6.80;99.90;;;;;;4956151;28;20088;-82
2022/03/26 00:52:43;;;;;;;63.72;33.58;;;6.90;99.90;;;;;;4953837;28;20463;-81
2022/03/26 00:55:08;;;;;;;60.00;32.38;;;6.70;99.90;;;;;;4956869;28;20080;-81
2022/03/26 00:57:35;;;;;;;64.93;34.20;;;6.30;99.90;;;;;;4936326;28;20035;-81
2022/03/26 01:00:00;;;;;;;60.20;32.72;;;6.00;99.90;;;;;;4940279;28;20414;-80
2022/03/26 01:02:26;;;;;;;61.88;32.33;;;5.90;99.90;;;;;;4945897;28;20031;-81
2022/03/26 01:04:52;;;;;;;62.60;33.70;;;5.80;99.90;;;;;;4949465;28;20375;-81
2022/03/26 01:07:18;;;;;;;70.40;33.95;;;5.80;99.90;;;;;;4937583;28;20030;-81
2022/03/26 01:09:43;;;;;;;69.82;35.08;;;5.80;99.90;;;;;;4951694;28;20093;-79
2022/03/26 01:12:09;;;;;;;69.18;33.33;;;5.70;99.90;;;;;;4947535;28;20030;-81
2022/03/26 01:14:35;;;;;;;63.28;32.70;;;5.50;99.90;;;;;;4938160;28;20057;-81
2022/03/26 01:17:01;;;;;;;67.63;34.80;;;5.40;99.90;;;;;;4939678;28;20152;-81
2022/03/26 01:19:26;;;;;;;62.72;32.85;;;5.30;99.90;;;;;;4945248;28;20081;-82
2022/03/26 01:21:52;;;;;;;65.93;34.08;;;5.30;99.90;;;;;;4946692;28;20569;-80
2022/03/26 01:24:17;;;;;;;70.95;34.13;;;5.30;99.90;;;;;;4936156;28;20494;-81
2022/03/26 01:26:43;;;;;;;64.68;32.22;;;5.40;99.90;;;;;;4949705;28;20034;-81
2022/03/26 01:29:09;;;;;;;57.38;27.40;;;5.60;99.90;;;;;;4949292;28;20430;-81
2022/03/26 01:31:35;;;;;;;62.85;31.98;;;5.80;99.90;;;;;;4946183;28;20105;-81
2022/03/26 01:34:01;;;;;;;60.10;32.35;;;5.70;99.90;;;;;;4949967;28;20038;-81
2022/03/26 01:36:26;;;;;;;63.45;32.13;;;5.40;99.90;;;;;;4963480;28;20042;-81
2022/03/26 01:38:52;;;;;;;69.97;32.60;;;5.10;99.90;;;;;;4936598;28;20046;-81
2022/03/26 01:41:19;;;;;;;63.50;31.58;;;5.00;99.90;;;;;;4941598;28;20057;-81
2022/03/26 01:43:46;;;;;;;69.20;34.03;;;5.00;99.90;;;;;;4934283;28;20047;-80
2022/03/26 01:46:11;;;;;;;69.35;33.67;;;4.90;99.90;;;;;;4939524;28;20504;-80
2022/03/26 01:48:38;;;;;;;71.85;35.08;;;4.90;99.90;;;;;;4934507;28;20035;-81
2022/03/26 01:51:14;;;;;;;70.32;35.70;;;4.90;99.90;;;;;;4950788;28;20105;-81
2022/03/26 01:53:50;;;;;;;66.03;34.53;;;4.90;99.90;;;;;;4945723;28;20458;-81
2022/03/26 01:56:19;;;;;;;62.47;31.33;;;5.10;99.90;;;;;;4931148;28;20323;-81
2022/03/26 01:58:44;;;;;;;62.72;31.42;;;5.40;99.90;;;;;;4951863;28;20109;-81
2022/03/26 02:01:10;;;;;;;55.35;30.52;;;5.50;99.90;;;;;;4932657;28;20038;-80
2022/03/26 02:03:36;;;;;;;61.30;32.08;;;5.30;99.90;;;;;;4947157;28;20105;-80
2022/03/26 02:06:02;;;;;;;68.80;32.97;;;5.00;99.90;;;;;;4936838;28;20034;-81
2022/03/26 02:08:31;;;;;;;63.92;31.77;;;5.20;99.90;;;;;;4934512;28;20038;-80
2022/03/26 02:10:57;;;;;;;65.50;33.72;;;5.30;99.90;;;;;;4937513;28;20038;-81
2022/03/26 02:13:22;;;;;;;64.93;34.08;;;5.10;99.90;;;;;;4934776;28;20027;-80
2022/03/26 02:15:48;;;;;;;66.22;32.92;;;4.90;99.90;;;;;;4936876;28;20046;-80
2022/03/26 02:18:14;;;;;;;71.60;34.35;;;4.70;99.90;;;;;;4950362;28;20037;-79
2022/03/26 02:20:39;;;;;;;67.47;33.45;;;4.60;99.90;;;;;;4949536;28;20054;-80
2022/03/26 02:23:05;;;;;;;63.70;33.33;;;4.90;99.90;;;;;;4949998;28;20035;-80
2022/03/26 02:25:31;;;;;;;75.93;34.30;;;5.10;99.90;;;;;;4947325;28;20033;-80
2022/03/26 02:27:56;;;;;;;69.20;35.25;;;5.00;99.90;;;;;;4931525;28;20140;-80
2022/03/26 02:30:22;;;;;;;75.70;38.35;;;4.70;99.90;;;;;;4956854;28;20042;-80
2022/03/26 02:32:47;;;;;;;83.53;42.95;;;4.50;99.90;;;;;;4934228;28;20047;-80
2022/03/26 02:35:13;;;;;;;92.28;50.90;;;4.50;99.90;;;;;;4943708;28;20084;-80
2022/03/26 02:37:39;;;;;;;90.30;45.97;;;4.40;99.90;;;;;;4932668;28;20039;-80
2022/03/26 02:40:06;;;;;;;86.03;46.35;;;4.40;99.90;;;;;;4937538;28;20509;-80
2022/03/26 02:42:32;;;;;;;78.53;42.58;;;4.40;99.90;;;;;;4945897;28;20039;-80
2022/03/26 02:44:59;;;;;;;77.25;40.83;;;4.40;99.90;;;;;;4934607;28;20425;-81
2022/03/26 02:47:25;;;;;;;90.68;42.45;;;4.40;99.90;;;;;;4935903;28;20045;-80
2022/03/26 02:49:50;;;;;;;71.60;35.35;;;4.60;99.90;;;;;;4937824;28;20422;-80
2022/03/26 02:52:16;;;;;;;66.22;32.38;;;4.70;99.90;;;;;;4955354;28;20041;-80
2022/03/26 02:54:42;;;;;;;76.93;35.03;;;4.80;99.90;;;;;;4952848;28;20066;-80
2022/03/26 02:57:08;;;;;;;78.07;35.22;;;4.70;99.90;;;;;;4937784;28;20371;-80
2022/03/26 02:59:33;;;;;;;67.35;34.40;;;4.50;99.90;;;;;;4932264;28;20033;-80
2022/03/26 03:01:59;;;;;;;71.22;35.80;;;4.30;99.90;;;;;;4935367;28;20037;-81
2022/03/26 03:04:24;;;;;;;72.20;35.80;;;4.10;99.90;;;;;;4966617;28;20035;-80
2022/03/26 03:06:51;;;;;;;77.22;35.65;;;4.00;99.90;;;;;;4937683;28;20517;-80
2022/03/26 03:09:17;;;;;;;69.78;35.50;;;4.00;99.90;;;;;;4932428;28;20514;-80
2022/03/26 03:11:44;;;;;;;75.50;36.28;;;3.90;99.90;;;;;;4938041;28;20034;-81
2022/03/26 03:14:10;;;;;;;67.03;32.97;;;3.80;99.90;;;;;;4932839;28;20116;-80
2022/03/26 03:16:36;;;;;;;68.70;35.50;;;3.80;99.90;;;;;;4935339;28;20034;-81
2022/03/26 03:19:03;;;;;;;71.82;34.80;;;3.80;99.90;;;;;;4953191;28;20453;-80
2022/03/26 03:21:29;;;;;;;67.25;34.13;;;3.70;99.90;;;;;;4937880;28;20342;-80
2022/03/26 03:23:54;;;;;;;67.00;34.40;;;3.70;99.90;;;;;;4952623;28;20034;-80
2022/03/26 03:26:20;;;;;;;70.75;34.22;;;3.70;99.90;;;;;;4943835;28;20034;-79
2022/03/26 03:28:45;;;;;;;74.30;34.97;;;3.70;99.90;;;;;;4935601;28;20136;-80
2022/03/26 03:31:11;;;;;;;69.25;35.33;;;3.70;99.90;;;;;;4938954;28;20124;-80
2022/03/26 03:33:37;;;;;;;67.88;35.50;;;3.60;99.90;;;;;;4926801;28;20376;-80
2022/03/26 03:36:03;;;;;;;72.75;34.92;;;3.60;99.90;;;;;;4936700;28;20116;-81
2022/03/26 03:38:28;;;;;;;76.90;35.42;;;3.70;99.90;;;;;;4936790;28;20038;-80
2022/03/26 03:40:55;;;;;;;73.90;33.95;;;3.70;99.90;;;;;;4935486;28;20037;-80
2022/03/26 03:43:21;;;;;;;67.80;33.45;;;3.90;99.90;;;;;;4945436;28;20504;-80
2022/03/26 03:45:47;;;;;;;71.25;35.53;;;4.00;99.90;;;;;;4937014;28;20027;-80
2022/03/26 03:48:12;;;;;;;69.85;34.85;;;3.90;99.90;;;;;;4950422;28;20030;-80
2022/03/26 03:50:38;;;;;;;76.90;34.63;;;3.80;99.90;;;;;;4930313;28;20050;-80
2022/03/26 03:53:03;;;;;;;65.75;34.05;;;3.70;99.90;;;;;;4932148;28;20399;-80
2022/03/26 03:55:30;;;;;;;71.07;35.33;;;3.50;99.90;;;;;;4953259;28;20121;-80
2022/03/26 03:57:55;;;;;;;66.72;35.15;;;3.50;99.90;;;;;;4952650;28;20034;-80
2022/03/26 04:00:21;;;;;;;69.78;35.25;;;3.50;99.90;;;;;;4936588;28;20497;-80
2022/03/26 04:02:47;;;;;;;68.65;34.28;;;3.40;99.90;;;;;;4950162;28;20409;-80
2022/03/26 04:05:13;;;;;;;72.45;33.58;;;3.30;99.90;;;;;;4938913;28;20026;-80
2022/03/26 04:07:40;;;;;;;75.78;36.80;;;3.30;99.90;;;;;;4938036;28;20077;-80
2022/03/26 04:10:07;;;;;;;79.18;36.25;;;3.40;99.90;;;;;;4953095;28;20405;-79
2022/03/26 04:12:39;;;;;;;69.88;36.22;;;3.60;99.90;;;;;;4950703;28;20060;-81
2022/03/26 04:15:06;;;;;;;77.50;35.03;;;3.50;99.90;;;;;;4937246;28;20482;-80
2022/03/26 04:17:32;;;;;;;72.32;35.38;;;3.30;99.90;;;;;;4945618;28;20570;-80
2022/03/26 04:19:58;;;;;;;77.13;35.70;;;3.30;99.90;;;;;;4972196;28;20034;-80
2022/03/26 04:22:24;;;;;;;71.47;35.45;;;3.40;99.90;;;;;;4935915;28;20090;-79
2022/03/26 04:24:49;;;;;;;77.32;36.75;;;3.50;99.90;;;;;;4984179;28;20475;-80
2022/03/26 04:27:15;;;;;;;53.80;29.95;;;3.60;99.90;;;;;;4949284;28;20037;-80
2022/03/26 04:29:40;;;;;;;50.80;26.30;;;3.70;99.90;;;;;;4938213;28;20292;-80
2022/03/26 04:32:06;;;;;;;64.85;33.17;;;3.80;99.90;;;;;;4972006;28;20069;-80
2022/03/26 04:34:32;;;;;;;72.47;34.83;;;3.80;99.90;;;;;;4935962;28;20096;-80
2022/03/26 04:36:57;;;;;;;63.08;30.80;;;3.70;99.90;;;;;;4953155;28;20485;-80
2022/03/26 04:39:23;;;;;;;71.63;33.88;;;3.30;99.90;;;;;;4931124;28;20121;-80
2022/03/26 04:41:49;;;;;;;76.00;35.35;;;3.20;99.90;;;;;;4934442;28;20532;-79
2022/03/26 04:44:15;;;;;;;69.18;35.38;;;3.20;99.90;;;;;;4934330;28;20117;-80
2022/03/26 04:46:40;;;;;;;73.68;35.35;;;3.20;99.90;;;;;;4935009;28;20509;-80
2022/03/26 04:49:06;;;;;;;70.40;35.08;;;3.20;99.90;;;;;;4937703;28;20065;-79
2022/03/26 04:51:32;;;;;;;72.30;35.97;;;3.20;99.90;;;;;;4929217;28;20066;-80
2022/03/26 04:53:57;;;;;;;70.95;34.45;;;3.30;99.90;;;;;;4935882;28;20270;-80
2022/03/26 04:56:26;;;;;;;72.78;37.83;;;3.30;99.90;;;;;;4955862;28;20057;-80
2022/03/26 04:58:53;;;;;;;66.50;34.33;;;3.10;99.90;;;;;;4935933;28;20034;-80
2022/03/26 05:01:19;;;;;;;69.65;33.38;;;2.90;99.90;;;;;;4933603;28;20029;-80
2022/03/26 05:03:44;;;;;;;74.82;34.40;;;2.80;99.90;;;;;;4937533;28;20052;-79
2022/03/26 05:06:10;;;;;;;69.47;34.70;;;2.90;99.90;;;;;;4946557;28;20037;-80
2022/03/26 05:08:35;;;;;;;78.50;36.95;;;3.00;99.90;;;;;;4930692;28;20062;-80
2022/03/26 05:11:01;;;;;;;75.95;37.00;;;3.00;99.90;;;;;;4937257;28;20123;-79
2022/03/26 05:13:26;;;;;;;72.72;35.13;;;2.80;99.90;;;;;;4933253;28;20565;-78
2022/03/26 05:15:52;;;;;;;80.43;39.70;;;2.70;99.90;;;;;;4933961;28;20113;-79
2022/03/26 05:18:18;;;;;;;75.65;37.20;;;2.70;99.90;;;;;;4934439;28;20030;-80
2022/03/26 05:20:44;;;;;;;78.85;39.05;;;2.70;99.90;;;;;;4949889;28;20080;-80
2022/03/26 05:23:09;;;;;;;84.88;37.80;;;2.70;99.90;;;;;;4938806;28;20042;-81
2022/03/26 05:25:35;;;;;;;57.92;31.00;;;2.70;99.90;;;;;;4949695;28;20031;-80
2022/03/26 05:28:00;;;;;;;60.45;30.52;;;2.70;99.90;;;;;;4935295;28;20317;-80
2022/03/26 05:30:26;;;;;;;54.92;28.90;;;3.10;99.90;;;;;;4934142;28;20050;-80
2022/03/26 05:32:52;;;;;;;59.10;30.55;;;3.30;99.90;;;;;;4934996;28;20511;-80
2022/03/26 05:35:18;;;;;;;63.40;33.35;;;3.20;99.90;;;;;;4929504;28;20058;-81
2022/03/26 05:37:44;;;;;;;72.70;33.55;;;3.10;99.90;;;;;;4946807;28;20125;-80
2022/03/26 05:40:10;;;;;;;74.28;35.28;;;3.00;99.90;;;;;;4949390;28;20082;-82
2022/03/26 05:42:36;;;;;;;57.22;30.60;;;3.00;99.90;;;;;;4942400;28;20116;-79
2022/03/26 05:45:05;;;;;;;57.33;31.10;;;2.90;99.90;;;;;;4948956;28;20069;-79
2022/03/26 05:47:31;;;;;;;54.05;28.08;;;2.90;99.90;;;;;;4935479;28;20125;-80
2022/03/26 05:49:57;;;;;;;64.97;32.78;;;3.00;99.90;;;;;;4940782;28;20165;-81
2022/03/26 05:52:23;;;;;;;69.00;33.70;;;3.00;99.90;;;;;;4969513;28;20049;-81
2022/03/26 05:54:48;;;;;;;56.65;30.55;;;3.00;99.90;;;;;;4932161;28;20043;-80
2022/03/26 05:57:14;;;;;;;56.13;29.15;;;3.00;99.90;;;;;;4951078;28;20038;-80
2022/03/26 05:59:39;;;;;;;65.80;33.90;;;3.20;99.90;;;;;;4929888;28;20057;-81
2022/03/26 06:02:05;;;;;;;78.20;33.30;;;3.10;99.90;;;;;;4928883;28;20038;-80
2022/03/26 06:04:30;;;;;;;68.40;35.20;;;3.10;99.90;;;;;;4935990;28;20483;-80
2022/03/26 06:06:59;;;;;;;75.32;35.72;;;3.20;99.90;;;;;;4954011;28;20238;-80
2022/03/26 06:09:24;;;;;;;73.05;36.10;;;3.00;99.90;;;;;;4960281;28;20076;-81
2022/03/26 06:11:50;;;;;;;79.45;37.50;;;3.00;99.90;;;;;;4949814;28;20157;-81
2022/03/26 06:14:17;;;;;;;78.20;37.38;;;2.90;99.90;;;;;;4954961;28;20121;-82
2022/03/26 06:16:44;;;;;;;78.85;37.25;;;3.00;99.90;;;;;;4931560;28;20046;-81
2022/03/26 06:19:09;;;;;;;78.65;38.30;;;3.00;99.90;;;;;;4936454;28;20576;-81
2022/03/26 06:21:35;;;;;;;77.45;35.70;;;3.10;99.90;;;;;;4952366;28;20034;-80
2022/03/26 06:24:01;;;;;;;81.43;38.38;;;3.20;99.90;;;;;;4937702;28;20027;-81
2022/03/26 06:26:26;;;;;;;79.45;36.65;;;3.20;99.90;;;;;;4945974;28;20027;-81
2022/03/26 06:28:52;;;;;;;72.55;37.22;;;3.20;99.90;;;;;;4950634;28;20043;-80
2022/03/26 06:31:18;;;;;;;68.30;33.05;;;3.20;99.90;;;;;;4956993;28;20046;-81
2022/03/26 06:33:46;;;;;;;73.90;36.25;;;3.30;99.90;;;;;;4950490;28;20039;-81
2022/03/26 06:36:13;;;;;;;84.05;37.17;;;3.50;99.90;;;;;;4953655;28;20038;-81
2022/03/26 06:38:41;;;;;;;73.18;36.20;;;3.50;99.90;;;;;;4946011;28;20042;-81
2022/03/26 06:41:10;;;;;;;82.80;39.60;;;3.60;99.90;;;;;;4955227;28;20035;-80
2022/03/26 06:43:38;;;;;;;82.03;38.08;;;3.70;99.90;;;;;;4946117;28;20049;-80
2022/03/26 06:46:04;;;;;;;77.65;38.33;;;3.70;99.90;;;;;;4958080;28;20056;-81
2022/03/26 06:48:30;;;;;;;79.30;38.40;;;3.80;99.90;;;;;;4938852;28;20162;-81
2022/03/26 06:50:56;;;;;;;94.28;40.17;;;3.90;99.90;;;;;;4949523;28;20058;-81
2022/03/26 06:53:22;;;;;;;87.88;39.95;;;3.90;99.90;;;;;;4937160;28;20121;-80
2022/03/26 06:55:48;;;;;;;84.93;40.65;;;3.90;99.90;;;;;;4932358;28;20207;-80
2022/03/26 06:58:13;;;;;;;82.88;39.50;;;4.00;99.90;;;;;;4952039;28;20037;-81
2022/03/26 07:00:39;;;;;;;84.10;40.83;;;4.20;99.90;;;;;;4938428;28;20042;-81
2022/03/26 07:03:04;;;;;;;91.43;43.50;;;4.30;99.90;;;;;;4938147;28;20039;-81
2022/03/26 07:05:30;;;;;;;83.28;39.80;;;4.30;99.90;;;;;;4951291;28;20390;-81
2022/03/26 07:07:56;;;;;;;90.65;39.88;;;4.50;99.90;;;;;;4947585;28;21076;-81
2022/03/26 07:10:23;;;;;;;87.70;39.35;;;4.80;99.90;;;;;;4950832;28;20027;-82
2022/03/26 07:12:48;;;;;;;80.20;40.40;;;4.90;99.90;;;;;;4938308;28;20042;-80
2022/03/26 07:15:14;;;;;;;75.18;37.95;;;4.90;99.90;;;;;;4931454;28;20034;-80
2022/03/26 07:17:41;;;;;;;77.45;36.78;;;4.90;99.90;;;;;;4941294;28;20042;-80
2022/03/26 07:20:08;;;;;;;78.55;38.95;;;5.10;99.90;;;;;;4942452;28;20041;-81
2022/03/26 07:22:34;;;;;;;62.55;32.08;;;5.20;99.90;;;;;;4934170;28;20077;-81
2022/03/26 07:25:00;;;;;;;79.93;38.85;;;5.30;99.90;;;;;;4935004;28;20038;-80
2022/03/26 07:27:29;;;;;;;66.10;33.63;;;5.50;99.90;;;;;;4946500;28;20039;-80
2022/03/26 07:29:55;;;;;;;74.32;37.60;;;5.90;99.90;;;;;;4945179;28;20038;-80
2022/03/26 07:32:22;;;;;;;62.33;33.03;;;5.90;99.90;;;;;;4937846;28;20528;-81
2022/03/26 07:34:48;;;;;;;69.80;35.60;;;6.10;99.90;;;;;;4984345;28;20486;-80
2022/03/26 07:37:13;;;;;;;74.32;37.00;;;6.30;99.90;;;;;;4935894;28;20026;-81
2022/03/26 07:39:39;;;;;;;68.47;36.53;;;6.40;99.90;;;;;;4953088;28;20038;-80
2022/03/26 07:42:05;;;;;;;73.28;38.17;;;6.50;99.90;;;;;;4971918;28;20533;-80
2022/03/26 07:44:30;;;;;;;73.50;38.30;;;6.70;99.90;;;;;;4934979;28;20038;-81
2022/03/26 07:46:56;;;;;;;63.78;33.90;;;6.80;99.90;;;;;;4933563;28;20062;-80
2022/03/26 07:49:22;;;;;;;68.78;35.15;;;7.00;99.90;;;;;;4956587;28;20030;-80
2022/03/26 07:51:47;;;;;;;53.65;28.85;;;7.30;99.90;;;;;;4956796;28;20068;-80
2022/03/26 07:54:13;;;;;;;67.57;36.58;;;7.40;99.90;;;;;;4956475;28;20148;-80
2022/03/26 07:56:38;;;;;;;66.82;34.00;;;7.50;99.90;;;;;;4951230;28;20117;-80
2022/03/26 07:59:04;;;;;;;72.60;39.65;;;7.50;99.90;;;;;;4936261;28;20031;-80
2022/03/26 08:01:29;;;;;;;73.38;38.88;;;7.30;99.90;;;;;;4930192;28;20026;-80
2022/03/26 08:03:55;;;;;;;76.80;41.60;;;7.20;99.90;;;;;;4965656;28;20042;-80
2022/03/26 08:06:23;;;;;;;79.50;40.03;;;7.20;99.90;;;;;;4985244;28;20069;-80
2022/03/26 08:08:49;;;;;;;73.93;39.70;;;7.20;99.90;;;;;;4935668;28;20046;-81
2022/03/26 08:11:15;;;;;;;72.47;39.03;;;7.30;99.90;;;;;;4931278;28;20038;-79
2022/03/26 08:13:40;;;;;;;71.15;37.08;;;7.60;99.90;;;;;;4931758;28;20039;-80
2022/03/26 08:16:08;;;;;;;70.05;35.50;;;7.90;99.90;;;;;;4939058;28;20049;-80
2022/03/26 08:18:35;;;;;;;67.35;34.20;;;8.30;99.90;;;;;;4961725;28;20054;-81
2022/03/26 08:21:00;;;;;;;67.13;36.72;;;8.40;99.90;;;;;;4937942;28;20573;-80
2022/03/26 08:23:26;;;;;;;68.55;34.13;;;8.30;99.90;;;;;;4927675;28;20117;-80
2022/03/26 08:28:36;;;;;;;68.57;36.80;;;8.50;99.90;;;;;;4950339;28;20050;-80
2022/03/26 08:31:02;;;;;;;63.78;36.10;;;8.00;99.90;;;;;;4940717;28;20042;-80
2022/03/26 08:33:27;;;;;;;69.00;36.90;;;8.60;99.90;;;;;;4952570;28;20042;-80
2022/03/26 08:35:53;;;;;;;66.18;32.90;;;9.00;99.90;;;;;;4934781;28;20430;-80
2022/03/26 08:38:18;;;;;;;68.15;36.30;;;9.70;99.90;;;;;;4963272;28;20034;-80
2022/03/26 08:40:44;;;;;;;62.22;33.72;;;9.70;99.90;;;;;;4948973;28;20125;-81
2022/03/26 08:43:10;;;;;;;71.63;33.83;;;10.10;99.90;;;;;;4938915;28;20116;-80
2022/03/26 08:45:35;;;;;;;61.65;33.00;;;10.20;99.90;;;;;;4949746;28;20454;-81
2022/03/26 08:48:03;;;;;;;69.07;33.92;;;9.80;99.90;;;;;;4933178;28;20027;-80
2022/03/26 08:50:28;;;;;;;45.97;22.95;;;10.00;99.90;;;;;;4933954;28;20031;-81
2022/03/26 08:52:54;;;;;;;69.40;35.13;;;10.20;99.90;;;;;;4929308;28;20045;-80
2022/03/26 08:55:19;;;;;;;46.92;25.00;;;10.30;99.90;;;;;;4950919;28;20141;-81
2022/03/26 08:57:45;;;;;;;61.83;32.42;;;10.50;99.90;;;;;;4936712;28;20615;-80
2022/03/26 09:00:13;;;;;;;61.90;31.30;;;10.40;99.90;;;;;;4952784;28;20558;-80
2022/03/26 09:02:40;;;;;;;59.03;33.35;;;10.60;99.90;;;;;;4932802;28;20031;-81
2022/03/26 09:05:06;;;;;;;60.83;32.35;;;10.80;99.90;;;;;;4930972;28;20044;-81
2022/03/26 09:07:35;;;;;;;61.05;32.38;;;10.80;99.90;;;;;;4930314;28;20035;-80
2022/03/26 09:10:03;;;;;;;59.17;30.67;;;10.80;99.90;;;;;;4931498;28;20034;-81
2022/03/26 09:12:28;;;;;;;60.50;32.80;;;11.00;99.90;;;;;;4944425;28;20298;-80
2022/03/26 09:14:54;;;;;;;64.15;31.73;;;10.80;99.90;;;;;;4948116;28;20058;-81
2022/03/26 09:17:20;;;;;;;65.20;32.03;;;10.90;99.90;;;;;;4961478;28;20516;-82
2022/03/26 09:19:45;;;;;;;57.88;28.73;;;11.00;99.90;;;;;;4950548;28;20502;-81
2022/03/26 09:22:11;;;;;;;64.70;32.67;;;11.80;99.90;;;;;;4948518;28;20061;-82
2022/03/26 09:24:36;;;;;;;62.92;30.90;;;11.90;99.90;;;;;;4944245;28;20089;-82
2022/03/26 09:27:02;;;;;;;55.10;31.25;;;11.90;99.90;;;;;;4951482;28;20037;-80
2022/03/26 09:29:27;;;;;;;56.90;32.58;;;12.10;99.90;;;;;;4935603;28;20031;-81
2022/03/26 09:31:54;;;;;;;60.78;33.08;;;11.80;99.90;;;;;;4932431;28;20038;-82
2022/03/26 09:34:20;;;;;;;59.78;31.27;;;11.70;99.90;;;;;;4940187;28;20411;-81
2022/03/26 09:36:46;;;;;;;58.08;30.95;;;11.90;99.90;;;;;;4935959;28;20252;-81
2022/03/26 09:39:11;;;;;;;64.80;31.65;;;12.30;99.90;;;;;;4940346;28;20508;-81
2022/03/26 09:41:37;;;;;;;57.95;31.20;;;12.60;99.90;;;;;;4935379;28;20219;-81
2022/03/26 09:44:02;;;;;;;57.42;31.63;;;12.40;99.90;;;;;;4941459;28;20508;-81
2022/03/26 09:46:28;;;;;;;59.92;30.67;;;12.40;99.90;;;;;;4945090;28;20022;-82
2022/03/26 09:48:54;;;;;;;59.70;33.67;;;12.90;99.90;;;;;;4957278;28;20081;-81
2022/03/26 09:51:20;;;;;;;57.22;32.30;;;12.90;99.90;;;;;;4961928;28;20105;-80
2022/03/26 09:53:50;;;;;;;55.42;31.63;;;12.90;99.90;;;;;;4958551;28;20038;-80
2022/03/26 09:56:16;;;;;;;48.45;28.52;;;12.80;99.90;;;;;;4960416;28;20037;-81
2022/03/26 09:58:45;;;;;;;53.60;30.52;;;12.60;99.90;;;;;;4955780;28;20034;-81
2022/03/26 10:01:10;;;;;;;47.17;30.33;;;12.50;99.90;;;;;;4957499;28;20038;-81
2022/03/26 10:03:39;;;;;;;54.42;28.75;;;12.80;99.90;;;;;;4970979;28;20038;-81
2022/03/26 10:06:07;;;;;;;54.72;29.15;;;12.80;99.90;;;;;;4961487;28;20031;-81
2022/03/26 10:08:41;;;;;;;47.33;27.73;;;12.80;99.90;;;;;;4973646;28;20035;-81
2022/03/26 10:11:07;;;;;;;47.83;26.98;;;13.10;99.90;;;;;;4966505;28;20026;-81
2022/03/26 10:13:38;;;;;;;43.92;25.52;;;12.90;99.90;;;;;;4983050;28;20096;-81
2022/03/26 10:16:10;;;;;;;44.83;25.60;;;12.90;99.90;;;;;;4959031;28;20038;-81
2022/03/26 10:18:46;;;;;;;35.08;22.38;;;13.00;99.90;;;;;;4964364;28;20034;-82
2022/03/26 10:21:13;;;;;;;40.95;23.20;;;14.40;99.90;;;;;;4949236;28;20457;-82
2022/03/26 10:23:58;;;;;;;44.53;25.15;;;14.40;99.90;;;;;;4959984;28;20117;-82
2022/03/26 10:26:25;;;;;;;38.60;24.00;;;13.60;99.90;;;;;;4988034;28;20253;-82
2022/03/26 10:28:55;;;;;;;35.70;23.45;;;13.50;99.90;;;;;;4948725;28;20030;-81
2022/03/26 10:34:14;;;;;;;32.70;19.50;;;13.70;99.90;;;;;;4979301;28;20038;-83
2022/03/26 10:36:43;;;;;;;36.10;19.92;;;13.60;99.90;;;;;;4948003;28;20042;-81
2022/03/26 10:39:16;;;;;;;37.50;18.70;;;14.60;99.90;;;;;;4948949;28;20521;-83
2022/03/26 10:41:42;;;;;;;33.67;18.20;;;14.60;99.50;;;;;;4955632;28;20576;-83
2022/03/26 10:44:08;;;;;;;23.30;13.40;;;15.70;99.70;;;;;;4946516;28;20034;-82
2022/03/26 10:46:51;;;;;;;28.17;13.88;;;15.50;98.50;;;;;;4962255;28;20034;-82
2022/03/26 10:49:37;;;;;;;24.90;12.75;;;15.20;98.60;;;;;;4929967;28;20138;-83
2022/03/26 10:52:11;;;;;;;20.08;12.93;;;15.90;98.20;;;;;;4969535;28;20030;-83
2022/03/26 10:54:37;;;;;;;20.55;12.80;;;15.10;98.80;;;;;;4945549;28;20085;-82
2022/03/26 10:57:03;;;;;;;22.88;11.23;;;15.20;97.50;;;;;;4948007;28;20030;-82
2022/03/26 10:59:29;;;;;;;18.30;11.23;;;14.60;98.10;;;;;;4949400;28;20034;-82
2022/03/26 11:01:55;;;;;;;15.05;9.68;;;15.10;97.30;;;;;;4961060;28;20165;-81
2022/03/26 11:04:21;;;;;;;20.45;11.48;;;15.30;97.90;;;;;;4947483;28;20026;-83
2022/03/26 11:06:48;;;;;;;21.40;11.23;;;16.30;97.00;;;;;;4943115;28;20035;-82
2022/03/26 11:09:15;;;;;;;19.38;12.50;;;16.50;96.40;;;;;;4944332;28;20046;-83
2022/03/26 11:11:42;;;;;;;20.80;11.77;;;15.80;95.40;;;;;;4956060;28;20601;-82
2022/03/26 11:14:11;;;;;;;16.88;11.18;;;15.70;95.10;;;;;;4940804;28;20058;-82
2022/03/26 11:16:40;;;;;;;16.67;10.25;;;15.90;95.40;;;;;;4940419;28;20085;-82
2022/03/26 11:19:17;;;;;;;19.55;10.40;;;15.70;95.30;;;;;;4987762;28;20042;-82
2022/03/26 11:22:06;;;;;;;21.85;10.45;;;15.70;95.50;;;;;;4958159;28;20065;-83
2022/03/26 11:25:08;;;;;;;15.15;9.68;;;15.90;96.10;;;;;;4969907;28;20496;-83
2022/03/26 11:27:56;;;;;;;19.33;10.57;;;16.40;94.70;;;;;;4973373;28;20046;-84
2022/03/26 11:30:41;;;;;;;18.85;9.50;;;16.60;93.40;;;;;;4964821;28;20034;-82
2022/03/26 11:33:13;;;;;;;24.27;11.73;;;16.90;93.80;;;;;;4940013;28;20031;-84
2022/03/26 11:35:55;;;;;;;18.30;10.05;;;16.20;93.50;;;;;;4950281;28;20494;-84
2022/03/26 11:38:23;;;;;;;18.60;9.70;;;15.60;92.50;;;;;;4985296;28;20027;-83
2022/03/26 11:40:54;;;;;;;19.70;9.27;;;15.50;93.90;;;;;;4953065;28;20034;-84
2022/03/26 11:43:44;;;;;;;15.32;8.95;;;15.80;92.50;;;;;;4940008;28;20041;-82
2022/03/26 11:52:24;;;;;;;16.23;8.60;;;18.90;91.40;;;;;;4970244;28;20101;-81
2022/03/26 11:55:01;;;;;;;14.52;8.35;;;17.40;85.40;;;;;;4944805;28;20379;-83
2022/03/26 11:57:29;;;;;;;14.07;8.55;;;17.10;89.90;;;;;;4939074;28;20035;-83
2022/03/26 11:59:55;;;;;;;14.65;8.27;;;17.90;87.10;;;;;;4958992;28;20055;-82
2022/03/26 12:02:34;;;;;;;13.88;8.32;;;18.60;85.80;;;;;;4949912;28;20069;-83
2022/03/26 12:08:15;;;;;;;9.52;6.55;;;17.60;81.90;;;;;;4954434;28;20054;-81
2022/03/26 12:10:41;;;;;;;10.32;6.47;;;17.50;83.50;;;;;;4950543;28;20034;-82
2022/03/26 12:13:08;;;;;;;13.02;7.15;;;16.80;81.80;;;;;;4914417;28;20050;-82
2022/03/26 12:15:34;;;;;;;12.23;7.18;;;16.70;85.00;;;;;;4935790;28;20121;-82
2022/03/26 12:18:09;;;;;;;14.80;7.15;;;16.60;84.60;;;;;;4955063;28;20557;-81
2022/03/26 12:20:35;;;;;;;14.38;7.88;;;16.50;83.80;;;;;;4943564;28;20023;-82
2022/03/26 12:23:02;;;;;;;12.88;7.72;;;16.80;84.80;;;;;;4985619;28;20042;-82
2022/03/26 12:25:37;;;;;;;9.88;7.50;;;16.50;81.70;;;;;;4966830;28;20391;-82
2022/03/26 12:28:03;;;;;;;14.35;7.88;;;16.80;82.70;;;;;;4954939;28;20046;-82
2022/03/26 12:30:29;;;;;;;13.50;8.55;;;17.30;81.90;;;;;;4933019;28;20081;-82
2022/03/26 12:32:58;;;;;;;10.20;7.38;;;19.10;80.20;;;;;;4936759;28;20030;-82
2022/03/26 12:35:27;;;;;;;13.23;6.10;;;18.50;75.90;;;;;;4938723;28;20041;-82
2022/03/26 12:37:53;;;;;;;10.07;6.88;;;19.90;76.80;;;;;;4939255;28;20042;-82
2022/03/26 12:40:20;;;;;;;13.30;6.82;;;20.00;74.00;;;;;;4950451;28;20038;-82
2022/03/26 12:42:51;;;;;;;10.85;6.95;;;20.10;73.70;;;;;;4930367;28;20414;-83
2022/03/26 12:45:28;;;;;;;12.13;7.88;;;18.40;75.10;;;;;;4939603;28;20030;-82
2022/03/26 12:47:54;;;;;;;11.68;8.27;;;18.10;73.70;;;;;;4944246;28;20031;-81
2022/03/26 12:50:20;;;;;;;14.10;7.55;;;17.90;76.20;;;;;;4924121;28;20077;-82